createdAt,value
2018-06-17T00:00:44.400Z,1.97
2018-06-17T00:03:13.072Z,2.23
2018-06-17T00:05:42.356Z,1.80
2018-06-17T00:08:10.984Z,2.03
2018-06-17T00:10:39.559Z,1.70
2018-06-17T00:13:08.189Z,1.53
2018-06-17T00:15:36.955Z,1.60
2018-06-17T00:18:05.568Z,1.70
2018-06-17T00:20:34.176Z,1.83
2018-06-17T00:23:02.770Z,1.73
2018-06-17T00:25:31.355Z,1.90
2018-06-17T00:28:00.069Z,1.70
2018-06-17T00:30:29.405Z,1.93
2018-06-17T00:32:58.016Z,2.10
2018-06-17T00:35:26.736Z,1.60
2018-06-17T00:37:55.509Z,2.13
2018-06-17T00:40:24.083Z,2.23
2018-06-17T00:42:52.652Z,1.73
2018-06-17T00:45:21.280Z,1.90
2018-06-17T00:47:49.852Z,2.07
2018-06-17T00:50:18.463Z,2.00
2018-06-17T00:52:47.097Z,1.87
2018-06-17T00:55:15.697Z,1.80
2018-06-17T00:57:51.942Z,1.90
2018-06-17T01:00:22.920Z,2.17
2018-06-17T01:02:51.492Z,2.10
2018-06-17T01:05:20.096Z,1.70
2018-06-17T01:07:48.682Z,1.83
2018-06-17T01:10:17.320Z,1.60
2018-06-17T01:12:46.212Z,1.63
2018-06-17T01:15:14.917Z,1.87
2018-06-17T01:17:43.607Z,2.40
2018-06-17T01:20:12.196Z,2.40
2018-06-17T01:22:40.820Z,1.87
2018-06-17T01:25:09.431Z,1.93
2018-06-17T01:27:38.010Z,2.10
2018-06-17T01:30:06.640Z,2.10
2018-06-17T01:32:35.216Z,2.20
2018-06-17T01:35:04.096Z,2.10
2018-06-17T01:37:32.679Z,1.80
2018-06-17T01:40:02.140Z,1.83
2018-06-17T01:42:30.738Z,2.20
2018-06-17T01:44:59.321Z,1.97
2018-06-17T01:47:27.968Z,2.10
2018-06-17T01:49:56.612Z,1.80
2018-06-17T01:52:25.203Z,1.70
2018-06-17T01:54:53.845Z,1.77
2018-06-17T01:57:23.163Z,1.97
2018-06-17T01:59:51.736Z,1.87
2018-06-17T02:02:21.095Z,2.23
2018-06-17T02:04:54.886Z,1.80
2018-06-17T02:07:28.894Z,1.77
2018-06-17T02:10:02.716Z,1.90
2018-06-17T02:12:31.328Z,1.87
2018-06-17T02:15:00.300Z,2.10
2018-06-17T02:17:29.260Z,1.87
2018-06-17T02:19:57.828Z,2.30
2018-06-17T02:22:26.404Z,2.10
2018-06-17T02:24:55.642Z,2.30
2018-06-17T02:27:24.239Z,1.80
2018-06-17T02:29:52.804Z,2.10
2018-06-17T02:32:21.412Z,1.80
2018-06-17T02:34:49.998Z,2.13
2018-06-17T02:37:19.020Z,1.70
2018-06-17T02:39:47.628Z,1.60
2018-06-17T02:42:16.228Z,2.43
2018-06-17T02:44:45.861Z,1.80
2018-06-17T02:47:19.578Z,2.40
2018-06-17T02:49:48.928Z,2.23
2018-06-17T02:52:22.784Z,2.20
2018-06-17T02:54:51.496Z,2.13
2018-06-17T02:57:20.773Z,2.20
2018-06-17T02:59:49.376Z,2.00
2018-06-17T03:02:17.989Z,1.97
2018-06-17T03:04:46.567Z,2.30
2018-06-17T03:07:15.140Z,1.90
2018-06-17T03:09:43.383Z,2.10
2018-06-17T03:12:11.961Z,2.10
2018-06-17T03:14:40.596Z,2.20
2018-06-17T03:17:09.246Z,1.90
2018-06-17T03:19:37.857Z,2.07
2018-06-17T03:22:06.500Z,2.30
2018-06-17T03:24:40.351Z,1.70
2018-06-17T03:27:14.181Z,1.57
2018-06-17T03:29:47.931Z,1.80
2018-06-17T03:32:21.968Z,1.87
2018-06-17T03:34:55.791Z,1.77
2018-06-17T03:37:24.416Z,1.67
2018-06-17T03:39:53.131Z,1.87
2018-06-17T03:42:21.724Z,1.57
2018-06-17T03:44:50.312Z,1.67
2018-06-17T03:47:18.911Z,1.60
2018-06-17T03:49:47.561Z,1.80
2018-06-17T03:52:16.148Z,1.90
2018-06-17T03:54:44.734Z,1.70
2018-06-17T03:57:13.752Z,1.37
2018-06-17T03:59:42.341Z,1.70
2018-06-17T04:02:10.940Z,1.40
2018-06-17T04:04:44.901Z,1.53
2018-06-17T04:07:13.513Z,1.43
2018-06-17T04:09:42.113Z,1.33
2018-06-17T04:12:10.728Z,1.30
2018-06-17T04:14:40.072Z,1.40
2018-06-17T04:17:13.524Z,1.00
2018-06-17T04:19:43.116Z,1.37
2018-06-17T04:22:12.079Z,1.10
2018-06-17T04:24:40.693Z,1.37
2018-06-17T04:27:10.328Z,1.50
2018-06-17T04:29:38.901Z,1.60
2018-06-17T04:32:07.252Z,2.00
2018-06-17T04:34:35.845Z,2.00
2018-06-17T04:37:04.450Z,2.27
2018-06-17T04:39:33.044Z,2.07
2018-06-17T04:42:01.649Z,2.30
2018-06-17T04:44:30.256Z,2.83
2018-06-17T04:46:58.979Z,2.93
2018-06-17T04:49:27.700Z,3.10
2018-06-17T04:51:56.544Z,3.57
2018-06-17T04:54:25.144Z,3.77
2018-06-17T04:56:54.196Z,4.70
2018-06-17T04:59:22.783Z,4.53
2018-06-17T05:01:51.367Z,5.33
2018-06-17T05:04:19.947Z,5.40
2018-06-17T05:06:48.572Z,5.90
2018-06-17T05:09:17.267Z,6.00
2018-06-17T05:11:46.347Z,6.20
2018-06-17T05:14:15.058Z,6.27
2018-06-17T05:16:43.652Z,7.00
2018-06-17T05:19:12.257Z,6.43
2018-06-17T05:21:40.869Z,6.03
2018-06-17T05:24:09.683Z,6.17
2018-06-17T05:26:38.380Z,5.00
2018-06-17T05:29:07.636Z,5.47
2018-06-17T05:31:36.212Z,5.10
2018-06-17T05:34:05.004Z,4.80
2018-06-17T05:36:34.052Z,5.13
2018-06-17T05:39:02.891Z,5.07
2018-06-17T05:41:31.459Z,5.87
2018-06-17T05:44:00.044Z,4.70
2018-06-17T05:46:29.027Z,4.90
2018-06-17T05:48:57.363Z,4.83
2018-06-17T05:51:25.942Z,4.70
2018-06-17T05:53:54.829Z,5.03
2018-06-17T05:56:23.412Z,5.00
2018-06-17T05:58:52.698Z,4.40
2018-06-17T06:01:21.483Z,4.90
2018-06-17T06:03:50.476Z,4.93
2018-06-17T06:06:19.226Z,4.80
2018-06-17T06:08:47.811Z,4.70
2018-06-17T06:11:16.461Z,4.63
2018-06-17T06:13:45.028Z,3.93
2018-06-17T06:16:13.621Z,4.60
2018-06-17T13:39:33.665Z,2.70
2018-06-17T13:42:02.855Z,2.23
2018-06-17T13:44:32.126Z,2.07
2018-06-17T13:47:01.480Z,2.10
2018-06-17T13:49:30.777Z,2.57
2018-06-17T13:51:59.905Z,2.60
2018-06-17T13:54:29.244Z,2.40
2018-06-17T13:56:58.288Z,2.20
2018-06-17T13:59:27.537Z,2.23
2018-06-17T14:01:56.777Z,2.30
2018-06-17T14:04:31.504Z,4.13
2018-06-17T14:07:01.156Z,2.40
2018-06-17T14:09:30.414Z,2.20
2018-06-17T14:12:00.635Z,2.00
2018-06-17T14:14:30.114Z,2.00
2018-06-17T14:16:59.303Z,2.27
2018-06-17T14:19:28.496Z,2.20
2018-06-17T14:21:57.995Z,2.17
2018-06-17T14:24:27.165Z,2.13
2018-06-17T14:26:56.257Z,2.30
2018-06-17T14:29:25.571Z,2.30
2018-06-17T14:31:55.105Z,1.93
2018-06-17T14:34:24.382Z,2.00
2018-06-17T14:36:53.574Z,2.17
2018-06-17T14:39:23.010Z,2.20
2018-06-17T14:41:57.691Z,2.30
2018-06-17T14:44:32.081Z,2.00
2018-06-17T14:47:06.555Z,2.20
2018-06-17T14:49:41.008Z,2.00
2018-06-17T14:52:15.497Z,2.13
2018-06-17T14:54:44.792Z,2.10
2018-06-17T14:57:14.043Z,2.73
2018-06-17T14:59:43.375Z,2.30
2018-06-17T15:02:12.646Z,2.23
2018-06-17T15:04:42.073Z,2.30
2018-06-17T15:07:11.545Z,2.10
2018-06-17T15:09:40.991Z,2.20
2018-06-17T15:12:10.145Z,2.30
2018-06-17T15:14:39.669Z,2.07
2018-06-17T15:17:09.243Z,1.90
2018-06-17T15:19:38.723Z,2.30
2018-06-17T15:22:07.983Z,2.00
2018-06-17T15:24:37.305Z,1.93
2018-06-17T15:27:06.661Z,2.00
2018-06-17T15:29:36.040Z,2.10
2018-06-17T15:32:10.446Z,1.93
2018-06-17T15:34:45.186Z,2.17
2018-06-17T15:37:19.836Z,2.20
2018-06-17T15:39:53.311Z,2.30
2018-06-17T15:42:22.600Z,2.37
2018-06-17T15:44:51.856Z,2.43
2018-06-17T15:47:21.214Z,2.30
2018-06-17T15:49:50.590Z,2.60
2018-06-17T15:52:19.971Z,2.37
2018-06-17T15:54:49.350Z,1.93
2018-06-17T15:57:18.983Z,2.47
2018-06-17T15:59:48.361Z,2.27
2018-06-17T16:02:17.773Z,3.03
2018-06-17T16:04:47.007Z,2.60
2018-06-17T16:07:16.249Z,2.33
2018-06-17T16:09:45.863Z,2.40
2018-06-17T16:12:20.275Z,2.43
2018-06-17T16:14:54.873Z,2.37
2018-06-17T16:17:29.433Z,2.10
2018-06-17T16:20:03.801Z,2.50
2018-06-17T16:22:33.117Z,2.27
2018-06-17T16:25:02.474Z,2.87
2018-06-17T16:27:31.795Z,2.50
2018-06-17T16:30:01.123Z,2.93
2018-06-17T16:32:30.428Z,2.67
2018-06-17T16:34:59.993Z,3.00
2018-06-17T16:37:29.436Z,2.80
2018-06-17T16:39:58.867Z,2.90
2018-06-17T16:42:28.373Z,3.20
2018-06-17T16:44:58.090Z,3.30
2018-06-17T16:47:27.456Z,3.13
2018-06-17T16:49:57.117Z,3.27
2018-06-17T16:52:31.691Z,3.60
2018-06-17T16:55:04.362Z,3.63
2018-06-17T16:57:38.708Z,3.20
2018-06-17T17:00:21.753Z,4.73
2018-06-17T17:02:51.182Z,3.40
2018-06-17T17:05:20.445Z,3.77
2018-06-17T17:07:50.424Z,3.90
2018-06-17T17:10:19.887Z,3.93
2018-06-17T17:12:49.146Z,4.10
2018-06-17T17:15:18.474Z,3.73
2018-06-17T17:17:47.806Z,3.77
2018-06-17T17:20:17.319Z,4.73
2018-06-17T17:22:46.769Z,4.70
2018-06-17T17:25:16.774Z,4.17
2018-06-17T17:27:46.551Z,4.80
2018-06-17T17:30:16.297Z,4.97
2018-06-17T17:32:50.772Z,5.10
2018-06-17T17:35:26.721Z,5.43
2018-06-17T17:39:00.507Z,4.93
2018-06-17T17:41:30.138Z,4.70
2018-06-17T17:44:02.384Z,4.80
2018-06-17T17:46:37.141Z,5.10
2018-06-17T17:49:08.158Z,4.50
2018-06-17T17:51:40.296Z,4.23
2018-06-17T17:54:10.143Z,4.60
2018-06-17T17:56:43.203Z,5.27
2018-06-17T17:59:13.591Z,5.27
2018-06-17T18:01:43.165Z,4.90
2018-06-17T18:04:14.243Z,5.60
2018-06-17T18:06:44.936Z,5.07
2018-06-17T18:09:14.704Z,4.80
2018-06-17T18:11:44.650Z,4.80
2018-06-17T18:14:14.029Z,4.83
2018-06-17T18:16:43.695Z,4.23
2018-06-17T18:19:16.261Z,5.17
2018-06-17T18:21:46.155Z,4.50
2018-06-17T18:24:15.844Z,4.97
2018-06-17T18:26:50.158Z,4.47
2018-06-17T18:29:25.117Z,4.60
2018-06-17T18:31:59.448Z,4.87
2018-06-17T18:34:34.200Z,4.77
2018-06-17T18:37:03.634Z,5.33
2018-06-17T18:39:33.696Z,5.03
2018-06-17T18:42:03.167Z,4.97
2018-06-17T18:44:32.515Z,4.17
2018-06-17T18:47:03.521Z,4.17
2018-06-17T18:49:33.470Z,5.97
2018-06-17T18:52:02.865Z,5.67
2018-06-17T18:54:32.188Z,5.83
2018-06-17T18:57:01.676Z,5.17
2018-06-17T18:59:31.335Z,5.43
2018-06-17T19:02:00.638Z,5.07
2018-06-17T19:04:30.106Z,4.43
2018-06-17T19:06:59.491Z,5.20
2018-06-17T19:09:33.565Z,5.23
2018-06-17T19:12:07.973Z,4.63
2018-06-17T19:14:42.338Z,5.23
2018-06-17T19:17:16.331Z,5.93
2018-06-17T19:19:45.784Z,5.47
2018-06-17T19:22:15.307Z,4.77
2018-06-17T19:24:44.711Z,5.30
2018-06-17T19:27:14.154Z,5.27
2018-06-17T19:29:43.687Z,5.40
2018-06-17T19:32:13.099Z,5.40
2018-06-17T19:34:42.583Z,5.63
2018-06-17T19:37:12.197Z,5.47
2018-06-17T19:39:41.802Z,5.87
2018-06-17T19:42:11.268Z,5.50
2018-06-17T19:44:40.614Z,5.27
2018-06-17T19:47:10.013Z,4.80
2018-06-17T19:49:44.410Z,5.20
2018-06-17T19:52:18.750Z,5.83
2018-06-17T19:54:54.025Z,6.00
2018-06-17T19:57:28.609Z,6.10
2018-06-17T20:00:03.173Z,5.80
2018-06-17T20:02:32.916Z,5.60
2018-06-17T20:05:02.314Z,5.57
2018-06-17T20:07:32.002Z,5.87
2018-06-17T20:10:01.825Z,6.50
2018-06-17T20:12:31.838Z,6.73
2018-06-17T20:15:02.812Z,6.50
2018-06-17T20:17:33.432Z,6.23
2018-06-17T20:20:04.191Z,5.10
2018-06-17T20:22:39.614Z,5.67
2018-06-17T20:25:09.392Z,5.83
2018-06-17T20:27:41.351Z,5.93
2018-06-17T20:30:12.660Z,6.40
2018-06-17T20:32:48.186Z,6.90
2018-06-17T20:35:25.406Z,5.30
2018-06-17T20:38:00.213Z,6.10
2018-06-17T20:40:35.399Z,5.67
2018-06-17T20:44:09.237Z,6.80
2018-06-17T20:46:39.254Z,6.37
2018-06-17T20:49:08.861Z,7.80
2018-06-17T20:51:39.883Z,7.20
2018-06-17T20:54:09.844Z,7.10
2018-06-17T20:56:39.992Z,6.87
2018-06-17T20:59:11.019Z,7.50
2018-06-17T21:01:40.797Z,7.57
2018-06-17T21:04:11.890Z,7.03
2018-06-17T21:06:42.533Z,7.97
2018-06-17T21:09:12.621Z,7.47
2018-06-17T21:11:42.448Z,7.30
2018-06-17T21:14:11.861Z,7.77
2018-06-17T21:16:41.496Z,7.40
2018-06-17T21:19:16.377Z,7.53
2018-06-17T21:21:50.825Z,6.97
2018-06-17T21:24:25.267Z,7.53
2018-06-17T21:26:59.711Z,7.27
2018-06-17T21:29:29.275Z,8.00
2018-06-17T21:31:58.726Z,7.80
2018-06-17T21:34:28.393Z,7.80
2018-06-17T21:36:57.383Z,7.30
2018-06-17T21:39:27.437Z,7.70
2018-06-17T21:41:56.933Z,7.60
2018-06-17T21:44:26.472Z,7.40
2018-06-17T21:46:55.797Z,7.80
2018-06-17T21:49:26.557Z,6.90
2018-06-17T21:51:56.166Z,7.20
2018-06-17T21:54:25.727Z,6.70
2018-06-17T21:56:55.145Z,6.93
2018-06-17T21:59:25.264Z,6.93
2018-06-17T22:01:54.971Z,7.50
2018-06-17T22:04:29.404Z,6.57
2018-06-17T22:07:01.052Z,6.30
2018-06-17T22:09:35.750Z,5.60
2018-06-17T22:12:10.883Z,5.33
2018-06-17T22:14:46.730Z,5.50
2018-06-17T22:17:21.824Z,5.30
2018-06-17T22:19:52.693Z,5.60
2018-06-17T22:22:23.041Z,4.90
2018-06-17T22:24:52.993Z,4.90
2018-06-17T22:27:22.721Z,4.77
2018-06-17T22:29:53.544Z,4.10
2018-06-17T22:32:23.737Z,4.60
2018-06-17T22:34:53.222Z,4.10
2018-06-17T22:37:23.274Z,3.80
2018-06-17T22:39:54.055Z,3.80
2018-06-17T22:42:23.773Z,3.77
2018-06-17T22:44:53.981Z,3.40
2018-06-17T22:47:58.972Z,3.40
2018-06-17T22:50:28.743Z,3.40
2018-06-17T22:53:09.038Z,3.60
2018-06-17T22:55:39.116Z,3.20
2018-06-17T22:58:13.622Z,3.40
2018-06-17T23:00:48.289Z,3.33
2018-06-17T23:03:23.285Z,3.03
2018-06-17T23:05:57.883Z,3.17
2018-06-17T23:08:32.443Z,2.93
2018-06-17T23:11:06.015Z,3.40
2018-06-17T23:13:36.053Z,2.70
2018-06-17T23:16:05.513Z,2.87
2018-06-17T23:18:34.939Z,2.67
2018-06-17T23:21:04.208Z,2.60
2018-06-17T23:23:34.013Z,2.70
2018-06-17T23:26:03.419Z,2.40
2018-06-17T23:28:33.586Z,2.30
2018-06-17T23:31:04.136Z,2.30
2018-06-17T23:33:33.558Z,2.33
2018-06-17T23:36:03.857Z,2.20
2018-06-17T23:38:33.461Z,2.73
2018-06-17T23:41:03.220Z,1.93
2018-06-17T23:43:32.854Z,1.73
2018-06-17T23:46:10.690Z,1.70
2018-06-17T23:48:45.190Z,2.00
2018-06-17T23:51:19.776Z,1.90
2018-06-17T23:53:54.423Z,1.63
2018-06-17T23:56:24.164Z,1.47
2018-06-17T23:58:54.176Z,1.70
